Impacts METAR Board
IDs:

KMCO - Orlando Intl, FL, US

Updated at: 0600 UTC 24 Jan 2019
Potential Impact None Slight Moderate High
Time 23/18Z 23/19Z 23/20Z 23/21Z 23/22Z 23/23Z 24/00Z 24/01Z 24/02Z 24/03Z 24/04Z 24/05Z 24/06Z
Temp75 76 78 76 77 73 71 70 71 70 70 70 71
Dewpt61 61 59 61 61 59 60 61 62 62 63 64 64
Altim30.18 30.14 30.10 30.08 30.07 30.06 30.05 30.05 30.03 29.99 29.98 29.96 29.92
VIS10 10 10 10 10 10 10 10 10 10 10 10 10
CIG-- -- 70 65 -- -- -- 65 46 50 46 34 42
CoverSCTSCTBKNBKNFEWFEWCLRBKNBKNBKNBKNBKNOVC
FltCatVFRVFRVFRVFRVFRVFRVFRVFRVFRVFRVFRVFRVFR
WX--------------------------
WDir140120140130160170150150150150160160160
WSpd11 10 10 12 11 10 8 8 13 11 10 11 15
WGst-- -- -- -- -- -- -- -- -- -- -- -- 21
Raw hourly METARs
KMCO 231753Z 14011KT 10SM FEW036 SCT065 SCT300 24/16 A3018 RMK AO2 RAE05 PRESFR SLP219 P0000 60000 T02390161 10239 20150 58021
KMCO 231853Z 12010KT 10SM FEW038 SCT065 SCT300 24/16 A3014 RMK AO2 SLP204 T02440161
KMCO 231953Z 14010KT 10SM SCT060 BKN070 26/15 A3010 RMK AO2 SLP191 T02560150
KMCO 232053Z 13012KT 10SM SCT050 BKN065 24/16 A3008 RMK AO2 SLP183 T02440161 56036
KMCO 232153Z 16011KT 10SM FEW045 FEW055 FEW150 25/16 A3007 RMK AO2 SLP179 T02500161
KMCO 232253Z 17010KT 10SM FEW055 FEW150 23/15 A3006 RMK AO2 SLP176 T02280150
KMCO 232353Z 15008KT 10SM CLR 22/16 A3005 RMK AO2 SLP174 T02170156 10261 20217 56009
KMCO 240053Z 15008KT 10SM BKN065 21/16 A3005 RMK AO2 SLP174 T02110161
KMCO 240153Z 15013KT 10SM BKN046 BKN065 22/17 A3003 RMK AO2 SLP166 T02170167
KMCO 240253Z 15011KT 10SM FEW036 BKN050 21/17 A2999 RMK AO2 SLP155 T02110167 58019
KMCO 240353Z 16010KT 10SM FEW028 BKN046 21/17 A2998 RMK AO2 SLP152 T02110172
KMCO 240453Z 16011KT 10SM FEW028 BKN034 21/18 A2996 RMK AO2 SLP142 T02110178 402610144
KMCO 240553Z 16015G21KT 10SM SCT023 OVC042 22/18 A2992 RMK AO2 SLP129 T02170178 10217 20206 58026



Page loaded:  06:34 UTC  |   10:34 PM Pacific  |   11:34 PM Mountain  |   12:34 AM Central  |   01:34 AM Eastern

 

ADVISORIES

FORECASTS

FORECASTS

OBSERVATIONS

USER TOOLS

ABOUT US